Stuart, IA (50250)

1:02 AM CDT on September 05, 2015 (GMT -0500)
S.W. of Earlham | | Change Station
CLOSE
Current Station
Personal Weather Station
Location: Earlham, IA
Elevation: 1145 ft
Nearby Weather Stations

Elev 1145 ft 41.46 °N, 94.17 °W | Updated 2 seconds ago

Partly Cloudy
Partly Cloudy
74.8 °F
Feels Like 73 °F
N
0.0
Wind Variable Wind from SE
Gusts 0.0 mph

Today
High -- | Low -- °F
--% Chance of Precip.
Yesterday
High -- | Low -- °F
Precip. -- in
6:47 AM 7:44 PM
Waning Gibbous, 52% visible
Pressure 29.97 in
Visibility 10.0 miles
Clouds Clear
Heat Index 73 °F
Dew Point 73 °F
Humidity 95%
Rainfall 0.00 in
Snow Depth Not available.
UV 0.0 out of 12
Pollen 11.30 out of 12
Air Quality Not available.
Flu Activity Not available.
METAR KPRO 050555Z AUTO 14005KT 10SM CLR 23/22 A2997 RMK AO2 T02320220 10283 20232
Pressure 29.97 in
Visibility 10.0 miles
Clouds Clear
Heat Index 73 °F
Dew Point 73 °F
Humidity 95%
Rainfall 0.00 in
Snow Depth Not available.
UV 0.0 out of 12
Pollen 11.30 out of 12
Air Quality Not available.
Flu Activity Not available.
METAR KPRO 050555Z AUTO 14005KT 10SM CLR 23/22 A2997 RMK AO2 T02320220 10283 20232

10-Day Weather Forecast

×

Almanac

Astronomy

Sep. 05, 2015 Rise Set
Actual Time
Civil Twilight
Nautical Twilight
Astronomical Twilight
Moon
Length of Visible Light
Length of Day
Tomorrow will be .
, % of the Moon is Illuminated

Today's Extremes

State Highs State Lows

Community

WunderPhotos

Upload Photos

1,852,431 photos uploaded!

WunderBlogs® & News

Nearby

Air Quality

  Air Quality AQ Index Pollutant
Not available.

Snow Depth

Station Depth Elevation

Earthquake Activity

City Distance Mag. Time & Date
Minimum magnitude displayed is 2.5.

Coastal Water Temperatures

Place Temperature

Stations

Nearby Weather Stations

Station Location Temp. Windchill Dew Point Humidity Wind Precip. Elev Updated Type